sensor_id;sensor_type;location;lat;lon;timestamp;pressure;altitude;pressure_sealevel;temperature;humidity
17785;BME280;9016;53.582;10.062;2022-11-12T00:01:18;103083.91;;;12.83;84.57
17785;BME280;9016;53.582;10.062;2022-11-12T00:03:46;103075.97;;;12.80;83.69
17785;BME280;9016;53.582;10.062;2022-11-12T00:06:14;103076.91;;;12.79;84.03
17785;BME280;9016;53.582;10.062;2022-11-12T00:08:42;103081.25;;;12.82;84.33
17785;BME280;9016;53.582;10.062;2022-11-12T00:11:10;103079.16;;;12.91;84.14
17785;BME280;9016;53.582;10.062;2022-11-12T00:13:38;103077.25;;;12.97;83.79
17785;BME280;9016;53.582;10.062;2022-11-12T00:16:06;103077.06;;;13.01;83.14
17785;BME280;9016;53.582;10.062;2022-11-12T00:18:36;103088.63;;;13.03;83.23
17785;BME280;9016;53.582;10.062;2022-11-12T00:21:05;103097.28;;;13.11;83.16
17785;BME280;9016;53.582;10.062;2022-11-12T00:23:33;103082.16;;;13.10;82.75
17785;BME280;9016;53.582;10.062;2022-11-12T00:26:02;103088.28;;;13.14;82.24
17785;BME280;9016;53.582;10.062;2022-11-12T00:28:29;103084.75;;;13.12;82.38
17785;BME280;9016;53.582;10.062;2022-11-12T00:31:08;103086.34;;;13.19;81.77
17785;BME280;9016;53.582;10.062;2022-11-12T00:33:42;103088.06;;;13.20;81.04
17785;BME280;9016;53.582;10.062;2022-11-12T00:36:10;103075.88;;;13.11;80.09
17785;BME280;9016;53.582;10.062;2022-11-12T00:38:38;103070.53;;;12.83;80.30
17785;BME280;9016;53.582;10.062;2022-11-12T00:41:06;103078.81;;;12.76;81.37
17785;BME280;9016;53.582;10.062;2022-11-12T00:43:34;103074.06;;;12.84;81.83
17785;BME280;9016;53.582;10.062;2022-11-12T00:46:02;103067.84;;;12.83;81.37
17785;BME280;9016;53.582;10.062;2022-11-12T00:48:30;103074.13;;;12.82;80.64
17785;BME280;9016;53.582;10.062;2022-11-12T00:51:02;103059.13;;;12.77;80.49
17785;BME280;9016;53.582;10.062;2022-11-12T00:53:30;103059.84;;;12.83;81.06
17785;BME280;9016;53.582;10.062;2022-11-12T00:55:59;103071.56;;;12.79;79.97
17785;BME280;9016;53.582;10.062;2022-11-12T00:58:29;103071.91;;;12.69;79.76
17785;BME280;9016;53.582;10.062;2022-11-12T01:01:06;103065.47;;;12.74;80.12
17785;BME280;9016;53.582;10.062;2022-11-12T01:03:35;103067.41;;;12.69;80.05
17785;BME280;9016;53.582;10.062;2022-11-12T01:06:06;103076.84;;;12.81;79.95
17785;BME280;9016;53.582;10.062;2022-11-12T01:08:35;103073.22;;;12.82;79.28
17785;BME280;9016;53.582;10.062;2022-11-12T01:11:05;103071.50;;;12.81;79.47
17785;BME280;9016;53.582;10.062;2022-11-12T01:13:34;103072.31;;;12.83;78.52
17785;BME280;9016;53.582;10.062;2022-11-12T01:16:11;103067.63;;;12.91;79.12
17785;BME280;9016;53.582;10.062;2022-11-12T01:18:42;103068.47;;;12.91;78.64
17785;BME280;9016;53.582;10.062;2022-11-12T01:21:13;103064.03;;;12.90;77.88
17785;BME280;9016;53.582;10.062;2022-11-12T01:23:42;103058.94;;;12.83;78.27
17785;BME280;9016;53.582;10.062;2022-11-12T01:26:11;103070.38;;;12.88;78.30
17785;BME280;9016;53.582;10.062;2022-11-12T01:28:40;103069.34;;;12.92;78.15
17785;BME280;9016;53.582;10.062;2022-11-12T01:31:11;103061.06;;;13.00;77.31
17785;BME280;9016;53.582;10.062;2022-11-12T01:33:39;103062.03;;;12.97;77.24
17785;BME280;9016;53.582;10.062;2022-11-12T01:36:07;103068.16;;;13.01;76.96
17785;BME280;9016;53.582;10.062;2022-11-12T01:38:38;103069.69;;;13.09;76.48
17785;BME280;9016;53.582;10.062;2022-11-12T01:41:09;103062.44;;;13.13;75.91
17785;BME280;9016;53.582;10.062;2022-11-12T01:43:37;103070.34;;;13.16;75.61
17785;BME280;9016;53.582;10.062;2022-11-12T01:46:11;103072.16;;;13.15;76.04
17785;BME280;9016;53.582;10.062;2022-11-12T01:48:48;103069.28;;;13.21;75.83
17785;BME280;9016;53.582;10.062;2022-11-12T01:51:19;103068.69;;;13.12;75.27
17785;BME280;9016;53.582;10.062;2022-11-12T01:53:53;103079.06;;;13.22;75.57
17785;BME280;9016;53.582;10.062;2022-11-12T01:56:24;103080.75;;;13.25;75.01
17785;BME280;9016;53.582;10.062;2022-11-12T01:58:58;103084.13;;;13.31;74.29
17785;BME280;9016;53.582;10.062;2022-11-12T02:01:27;103078.69;;;13.33;74.29
17785;BME280;9016;53.582;10.062;2022-11-12T02:03:56;103086.59;;;13.36;74.68
17785;BME280;9016;53.582;10.062;2022-11-12T02:06:24;103084.75;;;13.38;73.75
17785;BME280;9016;53.582;10.062;2022-11-12T02:08:54;103076.47;;;13.45;74.10
17785;BME280;9016;53.582;10.062;2022-11-12T02:11:23;103073.00;;;13.42;73.77
17785;BME280;9016;53.582;10.062;2022-11-12T02:13:51;103078.50;;;13.39;73.44
17785;BME280;9016;53.582;10.062;2022-11-12T02:16:30;103080.09;;;13.44;73.84
17785;BME280;9016;53.582;10.062;2022-11-12T02:19:00;103067.72;;;13.40;73.53
17785;BME280;9016;53.582;10.062;2022-11-12T02:21:30;103075.84;;;13.37;73.17
17785;BME280;9016;53.582;10.062;2022-11-12T02:24:00;103065.94;;;13.41;73.46
17785;BME280;9016;53.582;10.062;2022-11-12T02:26:32;103063.41;;;13.36;73.05
17785;BME280;9016;53.582;10.062;2022-11-12T02:29:01;103068.81;;;13.35;72.70
17785;BME280;9016;53.582;10.062;2022-11-12T02:31:29;103050.31;;;13.27;72.61
17785;BME280;9016;53.582;10.062;2022-11-12T02:33:57;103061.19;;;13.23;72.75
17785;BME280;9016;53.582;10.062;2022-11-12T02:36:25;103054.66;;;13.05;72.02
17785;BME280;9016;53.582;10.062;2022-11-12T02:38:55;103045.44;;;12.86;72.81
17785;BME280;9016;53.582;10.062;2022-11-12T02:41:23;103054.66;;;12.77;73.77
17785;BME280;9016;53.582;10.062;2022-11-12T02:43:51;103058.59;;;12.66;74.48
17785;BME280;9016;53.582;10.062;2022-11-12T02:46:19;103057.41;;;12.48;75.46
17785;BME280;9016;53.582;10.062;2022-11-12T02:48:47;103069.94;;;12.46;75.68
17785;BME280;9016;53.582;10.062;2022-11-12T02:51:15;103068.34;;;12.41;75.35
17785;BME280;9016;53.582;10.062;2022-11-12T02:53:43;103063.13;;;12.36;75.81
17785;BME280;9016;53.582;10.062;2022-11-12T02:56:13;103062.44;;;12.30;76.45
17785;BME280;9016;53.582;10.062;2022-11-12T02:58:41;103075.75;;;12.31;76.67
17785;BME280;9016;53.582;10.062;2022-11-12T03:01:09;103075.81;;;12.30;76.79
17785;BME280;9016;53.582;10.062;2022-11-12T03:03:37;103069.75;;;12.23;77.00
17785;BME280;9016;53.582;10.062;2022-11-12T03:06:05;103065.63;;;12.13;77.15
17785;BME280;9016;53.582;10.062;2022-11-12T03:08:34;103067.56;;;12.07;77.99
17785;BME280;9016;53.582;10.062;2022-11-12T03:11:05;103068.47;;;12.07;77.61
17785;BME280;9016;53.582;10.062;2022-11-12T03:13:35;103078.41;;;12.02;78.97
17785;BME280;9016;53.582;10.062;2022-11-12T03:16:03;103097.13;;;12.02;78.82
17785;BME280;9016;53.582;10.062;2022-11-12T03:18:32;103083.88;;;11.98;79.12
17785;BME280;9016;53.582;10.062;2022-11-12T03:21:00;103089.59;;;11.85;79.96
17785;BME280;9016;53.582;10.062;2022-11-12T03:23:28;103089.84;;;11.76;80.41
17785;BME280;9016;53.582;10.062;2022-11-12T03:25:56;103085.72;;;11.65;80.93
17785;BME280;9016;53.582;10.062;2022-11-12T03:28:23;103086.84;;;11.55;81.12
17785;BME280;9016;53.582;10.062;2022-11-12T03:30:56;103105.78;;;11.46;81.53
17785;BME280;9016;53.582;10.062;2022-11-12T03:33:24;103099.63;;;11.42;81.78
17785;BME280;9016;53.582;10.062;2022-11-12T03:35:52;103100.78;;;11.34;81.72
17785;BME280;9016;53.582;10.062;2022-11-12T03:38:20;103094.81;;;11.23;82.05
17785;BME280;9016;53.582;10.062;2022-11-12T03:40:49;103096.69;;;11.19;82.23
17785;BME280;9016;53.582;10.062;2022-11-12T03:43:17;103094.94;;;11.18;82.29
17785;BME280;9016;53.582;10.062;2022-11-12T03:45:44;103084.53;;;11.08;82.45
17785;BME280;9016;53.582;10.062;2022-11-12T03:48:14;103091.16;;;10.91;83.59
17785;BME280;9016;53.582;10.062;2022-11-12T03:50:42;103096.56;;;10.88;83.49
17785;BME280;9016;53.582;10.062;2022-11-12T03:53:10;103106.38;;;10.86;83.62
17785;BME280;9016;53.582;10.062;2022-11-12T03:55:38;103096.69;;;10.84;83.95
17785;BME280;9016;53.582;10.062;2022-11-12T03:58:06;103108.38;;;10.78;83.66
17785;BME280;9016;53.582;10.062;2022-11-12T04:00:34;103094.06;;;10.81;83.42
17785;BME280;9016;53.582;10.062;2022-11-12T04:03:01;103091.53;;;10.76;83.36
17785;BME280;9016;53.582;10.062;2022-11-12T04:05:31;103102.28;;;10.73;83.05
17785;BME280;9016;53.582;10.062;2022-11-12T04:08:18;103102.50;;;10.63;83.23
17785;BME280;9016;53.582;10.062;2022-11-12T04:11:06;103103.44;;;10.62;83.76
17785;BME280;9016;53.582;10.062;2022-11-12T04:13:35;103099.97;;;10.58;83.72
17785;BME280;9016;53.582;10.062;2022-11-12T04:16:06;103122.28;;;10.54;83.94
17785;BME280;9016;53.582;10.062;2022-11-12T04:18:54;103114.22;;;10.56;84.29
17785;BME280;9016;53.582;10.062;2022-11-12T04:21:42;103110.88;;;10.46;84.32
17785;BME280;9016;53.582;10.062;2022-11-12T04:24:23;103110.16;;;10.40;84.57
17785;BME280;9016;53.582;10.062;2022-11-12T04:27:11;103094.94;;;10.45;84.83
17785;BME280;9016;53.582;10.062;2022-11-12T04:29:40;103104.75;;;10.43;84.39
17785;BME280;9016;53.582;10.062;2022-11-12T04:32:25;103107.44;;;10.41;84.54
17785;BME280;9016;53.582;10.062;2022-11-12T04:34:53;103101.41;;;10.33;85.35
17785;BME280;9016;53.582;10.062;2022-11-12T04:37:25;103112.94;;;10.34;85.60
17785;BME280;9016;53.582;10.062;2022-11-12T04:39:53;103113.72;;;10.39;84.98
17785;BME280;9016;53.582;10.062;2022-11-12T04:42:46;103111.84;;;10.42;84.08
17785;BME280;9016;53.582;10.062;2022-11-12T04:45:39;103116.50;;;10.34;84.91
17785;BME280;9016;53.582;10.062;2022-11-12T04:48:07;103108.53;;;10.33;84.33
17785;BME280;9016;53.582;10.062;2022-11-12T04:50:36;103113.19;;;10.23;85.38
17785;BME280;9016;53.582;10.062;2022-11-12T04:53:05;103113.22;;;10.22;85.48
17785;BME280;9016;53.582;10.062;2022-11-12T04:55:33;103102.66;;;10.17;84.90
17785;BME280;9016;53.582;10.062;2022-11-12T04:58:01;103117.84;;;10.12;85.29
17785;BME280;9016;53.582;10.062;2022-11-12T05:00:29;103116.81;;;10.19;85.08
17785;BME280;9016;53.582;10.062;2022-11-12T05:02:57;103121.44;;;10.10;85.08
17785;BME280;9016;53.582;10.062;2022-11-12T05:05:25;103123.34;;;10.03;85.42
17785;BME280;9016;53.582;10.062;2022-11-12T05:07:59;103117.09;;;10.04;85.05
17785;BME280;9016;53.582;10.062;2022-11-12T05:10:29;103119.88;;;9.99;85.41
17785;BME280;9016;53.582;10.062;2022-11-12T05:12:57;103107.50;;;9.95;85.14
17785;BME280;9016;53.582;10.062;2022-11-12T05:15:25;103116.34;;;9.97;85.08
17785;BME280;9016;53.582;10.062;2022-11-12T05:17:53;103126.03;;;10.00;84.85
17785;BME280;9016;53.582;10.062;2022-11-12T05:20:21;103117.34;;;9.92;83.80
17785;BME280;9016;53.582;10.062;2022-11-12T05:22:49;103105.91;;;9.85;84.43
17785;BME280;9016;53.582;10.062;2022-11-12T05:25:33;103111.34;;;9.79;85.53
17785;BME280;9016;53.582;10.062;2022-11-12T05:28:01;103121.19;;;9.77;85.39
17785;BME280;9016;53.582;10.062;2022-11-12T05:30:32;103122.06;;;9.76;85.06
17785;BME280;9016;53.582;10.062;2022-11-12T05:33:00;103116.81;;;9.73;85.03
17785;BME280;9016;53.582;10.062;2022-11-12T05:35:28;103119.44;;;9.75;84.77
17785;BME280;9016;53.582;10.062;2022-11-12T05:37:56;103116.72;;;9.78;84.75
17785;BME280;9016;53.582;10.062;2022-11-12T05:40:24;103107.88;;;9.77;84.20
17785;BME280;9016;53.582;10.062;2022-11-12T05:42:53;103119.63;;;9.66;84.61
17785;BME280;9016;53.582;10.062;2022-11-12T05:45:21;103123.19;;;9.65;84.93
17785;BME280;9016;53.582;10.062;2022-11-12T05:47:49;103125.91;;;9.62;85.29
17785;BME280;9016;53.582;10.062;2022-11-12T05:50:17;103124.13;;;9.62;84.83
17785;BME280;9016;53.582;10.062;2022-11-12T05:52:45;103114.44;;;9.58;85.17
17785;BME280;9016;53.582;10.062;2022-11-12T05:55:13;103120.75;;;9.53;85.25
17785;BME280;9016;53.582;10.062;2022-11-12T05:57:41;103127.06;;;9.47;85.12
17785;BME280;9016;53.582;10.062;2022-11-12T06:00:11;103126.97;;;9.52;85.58
17785;BME280;9016;53.582;10.062;2022-11-12T06:02:39;103127.91;;;9.49;85.01
17785;BME280;9016;53.582;10.062;2022-11-12T06:05:08;103127.03;;;9.49;85.46
17785;BME280;9016;53.582;10.062;2022-11-12T06:07:37;103124.38;;;9.49;85.18
17785;BME280;9016;53.582;10.062;2022-11-12T06:10:06;103131.56;;;9.44;84.67
17785;BME280;9016;53.582;10.062;2022-11-12T06:12:34;103142.47;;;9.29;85.31
17785;BME280;9016;53.582;10.062;2022-11-12T06:15:02;103146.06;;;9.25;85.84
17785;BME280;9016;53.582;10.062;2022-11-12T06:17:31;103147.03;;;9.21;86.42
17785;BME280;9016;53.582;10.062;2022-11-12T06:19:59;103145.06;;;9.32;86.35
17785;BME280;9016;53.582;10.062;2022-11-12T06:22:27;103143.38;;;9.26;86.05
17785;BME280;9016;53.582;10.062;2022-11-12T06:24:55;103141.75;;;9.18;86.55
17785;BME280;9016;53.582;10.062;2022-11-12T06:27:22;103142.69;;;9.17;86.05
17785;BME280;9016;53.582;10.062;2022-11-12T06:29:50;103152.41;;;9.18;85.94
17785;BME280;9016;53.582;10.062;2022-11-12T06:32:19;103152.47;;;9.13;85.81
17785;BME280;9016;53.582;10.062;2022-11-12T06:34:48;103147.22;;;9.09;85.94
17785;BME280;9016;53.582;10.062;2022-11-12T06:37:18;103152.66;;;9.01;86.49
17785;BME280;9016;53.582;10.062;2022-11-12T06:39:47;103162.34;;;9.05;86.37
17785;BME280;9016;53.582;10.062;2022-11-12T06:42:15;103156.22;;;9.02;86.26
17785;BME280;9016;53.582;10.062;2022-11-12T06:44:43;103154.50;;;8.97;86.45
17785;BME280;9016;53.582;10.062;2022-11-12T06:47:11;103142.16;;;8.92;86.84
17785;BME280;9016;53.582;10.062;2022-11-12T06:49:39;103151.03;;;8.92;86.34
17785;BME280;9016;53.582;10.062;2022-11-12T06:52:08;103174.97;;;8.92;87.07
17785;BME280;9016;53.582;10.062;2022-11-12T06:54:42;103169.53;;;9.00;85.88
17785;BME280;9016;53.582;10.062;2022-11-12T06:57:10;103168.69;;;8.96;85.72
17785;BME280;9016;53.582;10.062;2022-11-12T06:59:38;103170.50;;;8.94;86.16
17785;BME280;9016;53.582;10.062;2022-11-12T07:02:06;103169.66;;;8.91;86.45
17785;BME280;9016;53.582;10.062;2022-11-12T07:04:34;103183.84;;;8.91;86.67
17785;BME280;9016;53.582;10.062;2022-11-12T07:07:01;103169.66;;;8.92;85.30
17785;BME280;9016;53.582;10.062;2022-11-12T07:09:37;103170.50;;;8.94;85.55
17785;BME280;9016;53.582;10.062;2022-11-12T07:12:06;103187.31;;;8.95;85.35
17785;BME280;9016;53.582;10.062;2022-11-12T07:14:34;103166.00;;;8.96;85.00
17785;BME280;9016;53.582;10.062;2022-11-12T07:17:01;103174.94;;;8.94;85.10
17785;BME280;9016;53.582;10.062;2022-11-12T07:19:29;103189.09;;;8.96;84.58
17785;BME280;9016;53.582;10.062;2022-11-12T07:21:57;103194.41;;;8.96;84.31
17785;BME280;9016;53.582;10.062;2022-11-12T07:24:25;103188.25;;;8.92;84.63
17785;BME280;9016;53.582;10.062;2022-11-12T07:26:55;103187.44;;;8.89;84.79
17785;BME280;9016;53.582;10.062;2022-11-12T07:29:24;103194.44;;;8.94;85.18
17785;BME280;9016;53.582;10.062;2022-11-12T07:32:12;103199.59;;;9.05;84.29
17785;BME280;9016;53.582;10.062;2022-11-12T07:34:40;103198.75;;;9.02;84.71
17785;BME280;9016;53.582;10.062;2022-11-12T07:37:09;103196.06;;;9.05;84.00
17785;BME280;9016;53.582;10.062;2022-11-12T07:39:37;103192.50;;;9.06;84.17
17785;BME280;9016;53.582;10.062;2022-11-12T07:42:07;103185.44;;;9.03;84.33
17785;BME280;9016;53.582;10.062;2022-11-12T07:44:35;103194.31;;;9.02;84.41
17785;BME280;9016;53.582;10.062;2022-11-12T07:47:03;103200.47;;;9.06;84.63
17785;BME280;9016;53.582;10.062;2022-11-12T07:49:31;103192.38;;;9.12;84.28
17785;BME280;9016;53.582;10.062;2022-11-12T07:51:59;103189.69;;;9.13;84.39
17785;BME280;9016;53.582;10.062;2022-11-12T07:54:27;103187.06;;;9.12;84.33
17785;BME280;9016;53.582;10.062;2022-11-12T07:56:55;103187.84;;;9.20;83.17
17785;BME280;9016;53.582;10.062;2022-11-12T07:59:24;103187.03;;;9.15;83.20
17785;BME280;9016;53.582;10.062;2022-11-12T08:01:52;103196.72;;;9.19;83.60
17785;BME280;9016;53.582;10.062;2022-11-12T08:04:20;103210.84;;;9.24;82.75
17785;BME280;9016;53.582;10.062;2022-11-12T08:06:48;103190.38;;;9.27;82.34
17785;BME280;9016;53.582;10.062;2022-11-12T08:09:16;103182.44;;;9.26;82.69
17785;BME280;9016;53.582;10.062;2022-11-12T08:11:44;103194.75;;;9.30;83.45
17785;BME280;9016;53.582;10.062;2022-11-12T08:14:12;103208.88;;;9.36;82.70
17785;BME280;9016;53.582;10.062;2022-11-12T08:16:41;103201.63;;;9.43;82.32
17785;BME280;9016;53.582;10.062;2022-11-12T08:19:09;103199.00;;;9.41;82.48
17785;BME280;9016;53.582;10.062;2022-11-12T08:21:37;103198.97;;;9.44;81.99
17785;BME280;9016;53.582;10.062;2022-11-12T08:24:06;103204.09;;;9.56;81.95
17785;BME280;9016;53.582;10.062;2022-11-12T08:26:34;103207.63;;;9.57;81.24
17785;BME280;9016;53.582;10.062;2022-11-12T08:29:02;103205.88;;;9.56;81.77
17785;BME280;9016;53.582;10.062;2022-11-12T08:31:34;103215.53;;;9.61;80.92
17785;BME280;9016;53.582;10.062;2022-11-12T08:34:04;103216.25;;;9.71;80.45
17785;BME280;9016;53.582;10.062;2022-11-12T08:36:41;103217.00;;;9.79;80.44
17785;BME280;9016;53.582;10.062;2022-11-12T08:39:09;103216.88;;;9.85;79.93
17785;BME280;9016;53.582;10.062;2022-11-12T08:41:37;103222.22;;;9.85;78.98
17785;BME280;9016;53.582;10.062;2022-11-12T08:44:05;103220.38;;;9.90;80.00
17785;BME280;9016;53.582;10.062;2022-11-12T08:46:34;103218.59;;;9.89;79.32
17785;BME280;9016;53.582;10.062;2022-11-12T08:49:03;103224.66;;;9.97;79.65
17785;BME280;9016;53.582;10.062;2022-11-12T08:51:31;103222.00;;;9.97;79.72
17785;BME280;9016;53.582;10.062;2022-11-12T08:53:59;103234.25;;;10.06;78.44
17785;BME280;9016;53.582;10.062;2022-11-12T08:56:27;103230.59;;;10.13;78.67
17785;BME280;9016;53.582;10.062;2022-11-12T08:58:55;103221.69;;;10.15;78.40
17785;BME280;9016;53.582;10.062;2022-11-12T09:01:23;103234.03;;;10.21;78.58
17785;BME280;9016;53.582;10.062;2022-11-12T09:03:52;103234.81;;;10.26;78.27
17785;BME280;9016;53.582;10.062;2022-11-12T09:06:21;103234.69;;;10.32;78.27
17785;BME280;9016;53.582;10.062;2022-11-12T09:08:49;103224.84;;;10.35;78.14
17785;BME280;9016;53.582;10.062;2022-11-12T09:11:17;103220.38;;;10.37;77.25
17785;BME280;9016;53.582;10.062;2022-11-12T09:13:45;103230.03;;;10.43;77.75
17785;BME280;9016;53.582;10.062;2022-11-12T09:16:13;103234.31;;;10.50;76.66
17785;BME280;9016;53.582;10.062;2022-11-12T09:18:41;103238.66;;;10.55;77.19
17785;BME280;9016;53.582;10.062;2022-11-12T09:21:11;103234.13;;;10.60;77.00
17785;BME280;9016;53.582;10.062;2022-11-12T09:23:40;103228.69;;;10.65;77.40
17785;BME280;9016;53.582;10.062;2022-11-12T09:26:09;103233.28;;;10.58;76.96
17785;BME280;9016;53.582;10.062;2022-11-12T09:28:36;103240.19;;;10.67;76.43
17785;BME280;9016;53.582;10.062;2022-11-12T09:31:06;103231.31;;;10.66;76.40
17785;BME280;9016;53.582;10.062;2022-11-12T09:33:34;103232.97;;;10.72;76.48
17785;BME280;9016;53.582;10.062;2022-11-12T09:36:03;103221.34;;;10.76;76.46
17785;BME280;9016;53.582;10.062;2022-11-12T09:38:31;103223.75;;;10.88;76.26
17785;BME280;9016;53.582;10.062;2022-11-12T09:41:26;103231.47;;;11.00;75.17
17785;BME280;9016;53.582;10.062;2022-11-12T09:43:58;103232.22;;;11.07;74.45
17785;BME280;9016;53.582;10.062;2022-11-12T09:46:37;103247.09;;;11.17;74.41
17785;BME280;9016;53.582;10.062;2022-11-12T09:49:17;103247.81;;;11.25;73.24
17785;BME280;9016;53.582;10.062;2022-11-12T09:51:49;103236.97;;;11.31;74.32
17785;BME280;9016;53.582;10.062;2022-11-12T09:54:21;103221.69;;;11.37;73.71
17785;BME280;9016;53.582;10.062;2022-11-12T09:56:52;103235.66;;;11.48;73.87
17785;BME280;9016;53.582;10.062;2022-11-12T09:59:21;103240.03;;;11.52;74.12
17785;BME280;9016;53.582;10.062;2022-11-12T10:02:01;103237.97;;;11.63;73.30
17785;BME280;9016;53.582;10.062;2022-11-12T10:04:43;103241.38;;;11.70;72.59
17785;BME280;9016;53.582;10.062;2022-11-12T10:07:22;103233.31;;;11.71;72.39
17785;BME280;9016;53.582;10.062;2022-11-12T10:10:00;103230.50;;;11.77;72.61
17785;BME280;9016;53.582;10.062;2022-11-12T10:12:40;103232.94;;;11.86;73.14
17785;BME280;9016;53.582;10.062;2022-11-12T10:15:36;103231.91;;;11.92;72.47
17785;BME280;9016;53.582;10.062;2022-11-12T10:18:30;103236.97;;;12.03;71.01
17785;BME280;9016;53.582;10.062;2022-11-12T10:21:09;103237.63;;;12.11;71.64
17785;BME280;9016;53.582;10.062;2022-11-12T10:23:42;103235.50;;;12.23;71.32
17785;BME280;9016;53.582;10.062;2022-11-12T10:26:13;103240.78;;;12.26;71.61
17785;BME280;9016;53.582;10.062;2022-11-12T10:28:46;103245.81;;;12.37;70.96
17785;BME280;9016;53.582;10.062;2022-11-12T10:31:16;103253.59;;;12.46;71.38
17785;BME280;9016;53.582;10.062;2022-11-12T10:33:45;103254.25;;;12.54;71.23
17785;BME280;9016;53.582;10.062;2022-11-12T10:36:26;103243.69;;;12.49;70.19
17785;BME280;9016;53.582;10.062;2022-11-12T10:38:56;103241.63;;;12.59;70.66
17785;BME280;9016;53.582;10.062;2022-11-12T10:41:26;103251.44;;;12.58;70.14
17785;BME280;9016;53.582;10.062;2022-11-12T10:44:02;103260.03;;;12.69;70.24
17785;BME280;9016;53.582;10.062;2022-11-12T10:46:33;103254.38;;;12.80;70.11
17785;BME280;9016;53.582;10.062;2022-11-12T10:49:05;103242.88;;;12.76;70.12
17785;BME280;9016;53.582;10.062;2022-11-12T10:51:35;103239.91;;;12.87;69.85
17785;BME280;9016;53.582;10.062;2022-11-12T10:54:25;103236.09;;;12.94;68.77
17785;BME280;9016;53.582;10.062;2022-11-12T10:56:55;103248.38;;;13.01;69.43
17785;BME280;9016;53.582;10.062;2022-11-12T10:59:24;103243.75;;;13.08;69.27
17785;BME280;9016;53.582;10.062;2022-11-12T11:01:55;103240.81;;;13.17;69.32
17785;BME280;9016;53.582;10.062;2022-11-12T11:04:28;103228.06;;;13.23;68.69
17785;BME280;9016;53.582;10.062;2022-11-12T11:07:02;103219.91;;;13.28;68.90
17785;BME280;9016;53.582;10.062;2022-11-12T11:09:32;103229.50;;;13.35;68.67
17785;BME280;9016;53.582;10.062;2022-11-12T11:12:01;103239.97;;;13.42;68.19
17785;BME280;9016;53.582;10.062;2022-11-12T11:14:32;103231.75;;;13.47;67.87
17785;BME280;9016;53.582;10.062;2022-11-12T11:17:02;103225.50;;;13.48;68.21
17785;BME280;9016;53.582;10.062;2022-11-12T11:19:38;103219.91;;;13.54;67.96
17785;BME280;9016;53.582;10.062;2022-11-12T11:22:29;103219.91;;;13.54;66.73
17785;BME280;9016;53.582;10.062;2022-11-12T11:25:11;103217.34;;;13.51;67.01
17785;BME280;9016;53.582;10.062;2022-11-12T11:27:46;103216.44;;;13.52;67.69
17785;BME280;9016;53.582;10.062;2022-11-12T11:30:20;103221.50;;;13.59;67.63
17785;BME280;9016;53.582;10.062;2022-11-12T11:35:52;103208.63;;;13.70;66.32
17785;BME280;9016;53.582;10.062;2022-11-12T11:38:31;103208.59;;;13.72;66.31
17785;BME280;9016;53.582;10.062;2022-11-12T11:41:16;103211.03;;;13.79;65.83
17785;BME280;9016;53.582;10.062;2022-11-12T11:43:57;103215.44;;;13.80;67.10
17785;BME280;9016;53.582;10.062;2022-11-12T11:46:48;103214.16;;;13.92;66.35
17785;BME280;9016;53.582;10.062;2022-11-12T11:49:52;103216.72;;;13.95;65.92
17785;BME280;9016;53.582;10.062;2022-11-12T11:52:34;103222.84;;;13.99;66.96
17785;BME280;9016;53.582;10.062;2022-11-12T11:55:16;103228.16;;;14.00;65.85
17785;BME280;9016;53.582;10.062;2022-11-12T11:57:55;103221.94;;;14.00;65.80
17785;BME280;9016;53.582;10.062;2022-11-12T12:00:29;103224.66;;;13.98;65.82
17785;BME280;9016;53.582;10.062;2022-11-12T12:03:15;103221.16;;;13.96;65.90
17785;BME280;9016;53.582;10.062;2022-11-12T12:05:53;103222.84;;;13.99;66.55
17785;BME280;9016;53.582;10.062;2022-11-12T12:08:32;103222.56;;;14.06;65.81
17785;BME280;9016;53.582;10.062;2022-11-12T12:11:07;103219.63;;;14.14;66.15
17785;BME280;9016;53.582;10.062;2022-11-12T12:13:49;103222.25;;;14.15;65.19
17785;BME280;9016;53.582;10.062;2022-11-12T12:16:37;103229.47;;;14.13;65.65
17785;BME280;9016;53.582;10.062;2022-11-12T12:19:19;103222.31;;;14.14;65.77
17785;BME280;9016;53.582;10.062;2022-11-12T12:21:52;103220.56;;;14.13;65.78
17785;BME280;9016;53.582;10.062;2022-11-12T12:24:27;103217.84;;;14.14;66.23
17785;BME280;9016;53.582;10.062;2022-11-12T12:27:01;103211.59;;;14.14;66.20
17785;BME280;9016;53.582;10.062;2022-11-12T12:29:35;103210.75;;;14.12;66.25
17785;BME280;9016;53.582;10.062;2022-11-12T12:32:10;103206.34;;;14.11;66.03
17785;BME280;9016;53.582;10.062;2022-11-12T12:34:43;103204.56;;;14.10;66.62
17785;BME280;9016;53.582;10.062;2022-11-12T12:37:21;103200.16;;;14.09;66.20
17785;BME280;9016;53.582;10.062;2022-11-12T12:39:54;103207.31;;;14.08;66.35
17785;BME280;9016;53.582;10.062;2022-11-12T12:42:28;103194.78;;;14.09;65.86
17785;BME280;9016;53.582;10.062;2022-11-12T12:45:01;103185.91;;;14.07;66.62
17785;BME280;9016;53.582;10.062;2022-11-12T12:47:38;103190.41;;;14.06;66.39
17785;BME280;9016;53.582;10.062;2022-11-12T12:50:11;103185.97;;;14.05;66.13
17785;BME280;9016;53.582;10.062;2022-11-12T12:53:01;103174.44;;;14.03;66.21
17785;BME280;9016;53.582;10.062;2022-11-12T12:55:36;103175.13;;;14.08;66.88
17785;BME280;9016;53.582;10.062;2022-11-12T12:58:14;103178.56;;;14.12;66.58
17785;BME280;9016;53.582;10.062;2022-11-12T13:00:46;103180.28;;;14.14;66.84
17785;BME280;9016;53.582;10.062;2022-11-12T13:03:50;103180.28;;;14.14;66.16
17785;BME280;9016;53.582;10.062;2022-11-12T13:06:24;103167.75;;;14.15;66.86
17785;BME280;9016;53.582;10.062;2022-11-12T13:09:00;103162.22;;;14.19;67.29
17785;BME280;9016;53.582;10.062;2022-11-12T13:12:02;103161.31;;;14.19;66.77
17785;BME280;9016;53.582;10.062;2022-11-12T13:15:10;103164.19;;;14.14;66.07
17785;BME280;9016;53.582;10.062;2022-11-12T13:17:48;103167.84;;;14.12;67.31
17785;BME280;9016;53.582;10.062;2022-11-12T13:20:38;103164.34;;;14.10;66.15